Historyczne dane pomiarowe

Dodano dane terminowe – wersja testowa.

Dane z okresu 1951-2019

Wersja bazy: 1.34 [2019-03-16, lista zmian], aktualizacja planowana na 2019-04-15

Dane meteo z obszaru Polski uzyskane na podstawie danych udostępnionych przez Instytut Meteorologii i Gospodarki Wodnej – Państwowy Instytut Badawczy.

 

Wybierz Datę:    

       

TemperaturaWilgotnośćWiatrCiśnienieOpadyŚniegCzas trwania zjawisk
 Stacja t tx tn tng RH VA  wxwx mslp ppp RRR   cm mm wxwxwxwxwxwxwx
1964-01-17-12.2 -6.6-28.6--- 5.7 1.0---- 2.7-- 35---------
1964-01-18-10.5 -7.6-12.3--- 8.0 2.0---- 0.3-- 40---------
1964-01-19-14.9 -8.6-20.1--- 2.7 0.3---- 0.0-- 42---------
1964-01-20-12.6 -4.6-19.6--- 5.3 0.0---- 0.0-- 40---------
1964-01-21 -9.0 -5.7-20.1--- 2.3 1.3---- 0.0-- 37---------
1964-01-22-10.8 -9.4-13.3--- 6.7 2.7---- 0.1-- 37---------
1964-01-23 -1.8 -0.6-11.3--- 8.0 2.3---- 0.0-- 35---------
1964-01-24 -8.6 -2.4 -9.9--- 8.0 3.7---- 1.0-- 33---------
1964-01-25 -7.7 -5.1-10.9--- 8.0 1.3---- 5.0-- 33---------
1964-01-26 -1.4 -0.2 -6.6--- 8.0 2.0---- 5.8-- 46---------
1964-01-27 -3.8 -1.4 -5.7--- 2.7 2.3---- 0.5-- 50---------
1964-01-28-12.6 -4.6-26.1--- 1.3 1.0---- 0.0-- 48---------
1964-01-29 -9.7 -1.0-15.2--- 0.3 2.0---- 0.0-- 44---------
1964-01-30 -9.6 0.4-22.6--- 0.0 0.3---- 0.0-- 42---------
1964-01-31 -4.3 -2.7 -8.5--- 8.0 1.0---- 0.3-- 40---------
1964-02-01 -3.0 1.3 -7.0--- 7.0 1.0---- 0.0-- 39---------
1964-02-02 -1.0 3.4 -2.8--- 8.0 1.3---- 11.6-- 39---------
1964-02-03 -2.3 0.0 -3.2--- 5.3 1.3---- 10.2-- 65---------
1964-02-04 -1.5 -1.2-12.3--- 8.0 1.3---- 4.2-- 60---------
1964-02-05 -2.4 0.6 -3.7--- 8.0 3.0---- 2.7-- 62---------
1964-02-06 -6.8 -2.7-10.4--- 5.0 2.7---- 4.5-- 63---------
1964-02-07 -6.9 -5.6 -9.2--- 5.3 4.7---- 0.4-- 72---------
1964-02-08 -7.0 -5.9 -9.4--- 8.0 3.0---- 13.0-- 78---------
1964-02-09 -2.6 -0.4 -7.5--- 8.0 1.0---- 4.2-- 86---------
1964-02-10 -6.6 -0.8 -8.2--- 8.0 0.7---- 14.3-- 98---------
1964-02-11 -2.8 -1.2 -7.0--- 6.7 1.0---- 8.2--104---------
1964-02-12 -3.6 -1.2-12.2--- 7.7 1.0---- 3.0--110---------
1964-02-13-10.5 -2.7-12.0--- 7.7 2.3---- 1.3--112---------
1964-02-14-17.5 -7.1-28.6--- 5.0 0.7---- 0.0--113---------
1964-02-15-16.0 -5.1-28.8--- 0.0 0.3---- 0.0--109---------
235.9 ms

 

Źródłem pochodzenia danych jest Instytut Meteorologii i Gospodarki Wodnej – Państwowy Instytut Badawczy. Dane Instytutu Meteorologii i Gospodarki Wodnej – Państwowego Instytutu Badawczego zostały przetworzone.

Dane źródłowe można odnaleźć na stronie https://dane.imgw.pl